createdAt,value
2022-08-04T00:00:43.344Z,23.00
2022-08-04T00:03:20.465Z,22.90
2022-08-04T00:06:00.970Z,22.90
2022-08-04T00:08:40.387Z,22.80
2022-08-04T00:11:15.272Z,22.80
2022-08-04T00:14:02.530Z,22.80
2022-08-04T00:16:38.775Z,22.80
2022-08-04T00:19:13.525Z,22.80
2022-08-04T00:21:48.277Z,22.80
2022-08-04T00:24:17.705Z,22.70
2022-08-04T00:26:46.362Z,22.80
2022-08-04T00:29:16.573Z,22.70
2022-08-04T00:31:56.885Z,22.70
2022-08-04T00:34:27.251Z,22.70
2022-08-04T00:36:56.950Z,22.70
2022-08-04T00:39:26.239Z,22.70
2022-08-04T00:42:15.198Z,22.60
2022-08-04T00:45:01.114Z,22.60
2022-08-04T00:47:44.239Z,22.60
2022-08-04T00:50:17.797Z,22.50
2022-08-04T00:53:07.847Z,22.50
2022-08-04T00:55:57.921Z,22.50
2022-08-04T00:58:40.158Z,22.50
2022-08-04T01:01:18.213Z,22.40
2022-08-04T01:04:04.249Z,22.40
2022-08-04T01:06:42.665Z,22.40
2022-08-04T01:09:25.977Z,22.40
2022-08-04T01:12:16.356Z,22.40
2022-08-04T01:14:58.258Z,22.30
2022-08-04T01:17:42.952Z,22.30
2022-08-04T01:20:12.933Z,22.30
2022-08-04T01:23:15.769Z,22.30
2022-08-04T01:26:43.640Z,22.20
2022-08-04T01:29:11.123Z,22.20
2022-08-04T01:32:04.685Z,22.20
2022-08-04T01:34:37.693Z,22.10
2022-08-04T01:37:13.550Z,22.10
2022-08-04T01:39:51.123Z,22.10
2022-08-04T01:42:32.210Z,22.10
2022-08-04T01:45:05.315Z,22.10
2022-08-04T01:47:36.604Z,22.00
2022-08-04T01:50:09.268Z,22.00
2022-08-04T01:52:38.698Z,22.00
2022-08-04T01:55:10.078Z,22.00
2022-08-04T01:57:43.420Z,22.00
2022-08-04T02:00:18.514Z,22.00
2022-08-04T02:02:47.471Z,22.00
2022-08-04T02:05:18.039Z,22.00
2022-08-04T02:08:15.233Z,21.90
2022-08-04T02:11:10.387Z,21.90
2022-08-04T02:13:50.085Z,21.90
2022-08-04T02:16:30.137Z,21.90
2022-08-04T02:19:05.648Z,21.90
2022-08-04T02:21:42.477Z,21.90
2022-08-04T02:24:17.149Z,22.00
2022-08-04T02:26:50.777Z,21.90
2022-08-04T02:29:21.481Z,21.90
2022-08-04T02:31:57.827Z,21.90
2022-08-04T02:34:31.936Z,21.90
2022-08-04T02:37:01.309Z,21.90
2022-08-04T02:39:48.532Z,21.90
2022-08-04T02:42:18.824Z,21.80
2022-08-04T02:44:59.984Z,21.80
2022-08-04T02:48:29.567Z,21.80
2022-08-04T02:50:28.694Z,21.80
2022-08-04T02:52:59.373Z,21.80
2022-08-04T02:55:30.172Z,21.80
2022-08-04T02:57:59.997Z,21.80
2022-08-04T03:00:28.938Z,21.70
2022-08-04T03:03:13.155Z,21.70
2022-08-04T03:06:01.443Z,21.70
2022-08-04T03:08:58.849Z,21.70
2022-08-04T03:11:57.586Z,21.70
2022-08-04T03:14:51.969Z,21.70
2022-08-04T03:17:53.938Z,21.70
2022-08-04T03:20:44.815Z,21.70
2022-08-04T03:23:45.413Z,21.70
2022-08-04T03:27:08.143Z,21.70
2022-08-04T03:30:12.363Z,21.70
2022-08-04T03:33:18.760Z,21.60
2022-08-04T03:36:28.582Z,21.60
2022-08-04T03:39:37.844Z,21.60
2022-08-04T03:42:29.036Z,21.60
2022-08-04T03:45:45.347Z,21.60
2022-08-04T03:48:54.649Z,21.60
2022-08-04T03:51:56.545Z,21.60
2022-08-04T03:54:54.394Z,21.60
2022-08-04T03:57:39.402Z,21.50
2022-08-04T04:00:10.201Z,21.50
2022-08-04T04:03:28.658Z,21.50
2022-08-04T04:06:22.639Z,21.50
2022-08-04T04:09:20.541Z,21.50
2022-08-04T04:12:23.071Z,21.50
2022-08-04T04:15:02.497Z,21.50
2022-08-04T04:18:00.516Z,21.50
2022-08-04T04:21:14.097Z,21.50
2022-08-04T04:24:01.396Z,21.50
2022-08-04T04:26:56.270Z,21.50
2022-08-04T04:29:48.668Z,21.50
2022-08-04T04:32:24.241Z,21.60
2022-08-04T04:35:11.091Z,21.60
2022-08-04T04:38:06.366Z,21.60
2022-08-04T04:40:47.696Z,21.60
2022-08-04T04:43:51.071Z,21.60
2022-08-04T04:46:31.778Z,21.70
2022-08-04T04:49:05.583Z,21.70
2022-08-04T04:51:43.426Z,21.70
2022-08-04T04:54:21.125Z,21.70
2022-08-04T04:56:54.788Z,21.70
2022-08-04T04:59:28.755Z,21.70
2022-08-04T05:02:23.455Z,21.70
2022-08-04T05:05:07.396Z,21.70
2022-08-04T05:08:45.185Z,21.80
2022-08-04T05:11:14.780Z,21.80
2022-08-04T05:14:35.208Z,21.80
2022-08-04T05:16:41.176Z,21.80
2022-08-04T05:19:20.532Z,21.80
2022-08-04T05:21:50.856Z,21.90
2022-08-04T05:24:21.455Z,21.90
2022-08-04T05:26:54.454Z,21.90
2022-08-04T05:29:31.935Z,22.00
2022-08-04T05:32:06.727Z,22.00
2022-08-04T05:34:42.003Z,22.00
2022-08-04T05:37:15.988Z,22.10
2022-08-04T05:39:47.700Z,22.10
2022-08-04T05:42:16.657Z,22.10
2022-08-04T05:44:50.802Z,22.20
2022-08-04T05:47:22.483Z,22.20
2022-08-04T05:49:55.588Z,22.30
2022-08-04T05:52:32.503Z,22.30
2022-08-04T05:55:02.522Z,22.30
2022-08-04T05:57:31.402Z,22.30
2022-08-04T06:00:14.870Z,22.40
2022-08-04T06:02:55.290Z,22.50
2022-08-04T06:05:24.880Z,22.50
2022-08-04T06:08:12.604Z,22.50
2022-08-04T06:10:43.601Z,22.60
2022-08-04T06:13:48.217Z,22.60
2022-08-04T06:16:03.928Z,22.60
2022-08-04T06:20:00.685Z,22.60
2022-08-04T06:21:27.857Z,22.70
2022-08-04T06:24:02.377Z,22.70
2022-08-04T06:26:35.330Z,22.80
2022-08-04T06:29:04.580Z,22.80
2022-08-04T06:32:31.311Z,22.90
2022-08-04T06:34:36.652Z,22.90
2022-08-04T06:37:05.481Z,23.00
2022-08-04T06:39:35.022Z,23.10
2022-08-04T06:42:21.398Z,23.10
2022-08-04T06:44:53.333Z,23.10
2022-08-04T06:47:22.844Z,23.20
2022-08-04T06:51:32.389Z,23.30
2022-08-04T06:52:46.999Z,23.30
2022-08-04T06:55:15.272Z,23.40
2022-08-04T06:57:45.641Z,23.50
2022-08-04T07:00:15.464Z,23.50
2022-08-04T07:02:46.967Z,23.60
2022-08-04T07:05:17.619Z,23.70
2022-08-04T07:07:56.441Z,23.70
2022-08-04T07:10:26.353Z,23.80
2022-08-04T07:12:54.648Z,23.90
2022-08-04T07:15:23.685Z,24.00
2022-08-04T07:17:53.411Z,24.10
2022-08-04T07:20:34.911Z,24.20
2022-08-04T07:23:04.845Z,24.30
2022-08-04T07:25:58.826Z,24.30
2022-08-04T07:28:23.603Z,24.40
2022-08-04T07:30:52.031Z,24.50
2022-08-04T07:33:20.801Z,24.60
2022-08-04T07:36:10.758Z,24.60
2022-08-04T07:38:50.822Z,24.70
2022-08-04T07:41:38.737Z,24.80
2022-08-04T07:44:07.969Z,24.90
2022-08-04T07:46:36.438Z,25.00
2022-08-04T07:49:05.561Z,25.10
2022-08-04T07:51:36.922Z,25.20
2022-08-04T07:54:07.695Z,25.30
2022-08-04T07:56:38.430Z,25.40
2022-08-04T07:59:07.244Z,25.50
2022-08-04T08:01:36.943Z,25.60
2022-08-04T08:04:07.571Z,25.70
2022-08-04T08:06:43.087Z,25.80
2022-08-04T08:09:14.737Z,25.90
2022-08-04T08:12:38.718Z,26.00
2022-08-04T08:14:32.182Z,26.10
2022-08-04T08:17:02.429Z,26.20
2022-08-04T08:19:31.123Z,26.30
2022-08-04T08:22:02.119Z,26.40
2022-08-04T08:24:31.607Z,26.50
2022-08-04T08:27:00.503Z,26.60
2022-08-04T08:29:30.839Z,26.60
2022-08-04T08:32:02.875Z,26.80
2022-08-04T08:34:35.589Z,26.90
2022-08-04T08:37:12.506Z,27.00
2022-08-04T08:39:47.912Z,27.10
2022-08-04T08:42:57.631Z,27.20
2022-08-04T08:46:06.751Z,27.30
2022-08-04T08:49:00.641Z,27.40
2022-08-04T08:51:48.140Z,27.50
2022-08-04T08:54:45.300Z,27.70
2022-08-04T08:57:42.463Z,27.80
2022-08-04T09:00:34.829Z,27.90
2022-08-04T09:03:27.938Z,28.10
2022-08-04T09:06:36.035Z,28.20
2022-08-04T09:09:49.821Z,28.30
2022-08-04T09:12:27.985Z,28.40
2022-08-04T09:15:04.306Z,28.50
2022-08-04T09:17:38.381Z,28.60
2022-08-04T09:20:14.136Z,28.70
2022-08-04T09:22:50.628Z,28.80
2022-08-04T09:25:25.682Z,28.80
2022-08-04T09:27:56.777Z,28.90
2022-08-04T09:30:33.680Z,29.10
2022-08-04T09:33:13.905Z,29.10
2022-08-04T09:35:53.657Z,29.20
2022-08-04T09:38:36.010Z,29.30
2022-08-04T09:41:26.906Z,29.30
2022-08-04T09:44:48.869Z,29.30
2022-08-04T09:47:25.675Z,29.40
2022-08-04T09:50:17.716Z,29.50
2022-08-04T09:52:54.112Z,29.60
2022-08-04T09:55:54.610Z,29.60
2022-08-04T09:58:34.199Z,29.60
2022-08-04T10:01:11.311Z,29.70
2022-08-04T10:03:42.494Z,29.80
2022-08-04T10:06:41.819Z,29.80
2022-08-04T10:09:22.173Z,29.90
2022-08-04T10:12:09.264Z,29.90
2022-08-04T10:14:41.658Z,30.00
2022-08-04T10:17:27.586Z,30.00
2022-08-04T10:20:08.998Z,30.00
2022-08-04T10:22:55.961Z,30.10
2022-08-04T10:26:05.429Z,30.10
2022-08-04T10:28:31.486Z,30.20
2022-08-04T10:31:05.619Z,30.20
2022-08-04T10:33:42.852Z,30.20
2022-08-04T10:36:17.696Z,30.30
2022-08-04T10:38:53.324Z,30.40
2022-08-04T10:41:30.743Z,30.40
2022-08-04T10:44:16.045Z,30.50
2022-08-04T10:46:50.898Z,30.50
2022-08-04T10:49:25.073Z,30.60
2022-08-04T10:52:02.897Z,30.60
2022-08-04T10:54:43.938Z,30.70
2022-08-04T10:57:16.762Z,30.70
2022-08-04T10:59:52.406Z,30.70
2022-08-04T11:02:38.696Z,30.80
2022-08-04T11:05:16.525Z,30.90
2022-08-04T11:07:48.336Z,30.90
2022-08-04T11:10:19.004Z,30.90
2022-08-04T11:12:50.520Z,30.90
2022-08-04T11:15:24.532Z,30.90
2022-08-04T11:17:57.623Z,31.00
2022-08-04T11:20:36.632Z,31.00
2022-08-04T11:23:09.436Z,30.90
2022-08-04T11:25:51.241Z,31.00
2022-08-04T11:28:32.500Z,31.10
2022-08-04T11:31:05.459Z,31.20
2022-08-04T11:33:42.384Z,31.20
2022-08-04T11:36:21.013Z,31.30
2022-08-04T11:38:54.485Z,31.30
2022-08-04T11:41:37.851Z,31.40
2022-08-04T11:44:12.259Z,31.50
2022-08-04T11:46:44.135Z,31.50
2022-08-04T11:49:22.109Z,31.60
2022-08-04T11:51:54.079Z,31.60
2022-08-04T11:54:23.247Z,31.70
2022-08-04T11:56:51.555Z,31.60
2022-08-04T11:59:24.760Z,31.60
2022-08-04T12:02:07.737Z,31.70
2022-08-04T12:04:48.058Z,31.80
2022-08-04T12:07:40.696Z,31.70
2022-08-04T12:10:41.345Z,31.70
2022-08-04T12:13:20.043Z,31.80
2022-08-04T12:15:58.432Z,31.70
2022-08-04T12:18:34.239Z,31.60
2022-08-04T12:21:09.098Z,31.60
2022-08-04T12:23:44.029Z,31.50
2022-08-04T12:26:18.392Z,31.50
2022-08-04T12:31:45.653Z,31.30
2022-08-04T12:34:18.776Z,31.30
2022-08-04T12:36:55.746Z,31.40
2022-08-04T12:39:28.313Z,31.30
2022-08-04T12:42:04.694Z,31.20
2022-08-04T12:44:37.284Z,31.20
2022-08-04T12:47:28.055Z,31.30
2022-08-04T12:50:01.769Z,31.30
2022-08-04T12:53:00.300Z,31.40
2022-08-04T12:55:25.167Z,31.30
2022-08-04T12:57:54.692Z,31.40
2022-08-04T13:00:31.133Z,31.50
2022-08-04T13:03:10.138Z,31.60
2022-08-04T13:05:41.782Z,31.80
2022-08-04T13:08:11.704Z,31.80
2022-08-04T13:10:44.921Z,31.80
2022-08-04T13:13:17.091Z,31.70
2022-08-04T13:18:50.094Z,31.80
2022-08-04T13:21:23.074Z,31.90
2022-08-04T13:24:09.892Z,31.90
2022-08-04T13:26:57.871Z,31.90
2022-08-04T13:29:59.400Z,31.90
2022-08-04T13:30:24.737Z,31.70
2022-08-04T13:32:26.286Z,31.80
2022-08-04T13:34:56.913Z,31.70
2022-08-04T13:37:31.571Z,31.40
2022-08-04T13:40:01.092Z,31.30
2022-08-04T13:42:31.934Z,31.10
2022-08-04T13:45:01.916Z,31.00
2022-08-04T13:47:33.969Z,30.80
2022-08-04T13:50:27.547Z,30.70
2022-08-04T13:52:57.902Z,30.50
2022-08-04T13:55:29.426Z,30.30
2022-08-04T13:58:04.133Z,30.10
2022-08-04T14:00:49.059Z,29.80
2022-08-04T14:03:31.772Z,29.40
2022-08-04T14:06:10.642Z,29.00
2022-08-04T14:08:47.956Z,28.50
2022-08-04T14:12:06.937Z,28.10
2022-08-04T14:14:20.024Z,27.80
2022-08-04T14:17:03.742Z,27.70
2022-08-04T14:19:49.853Z,27.50
2022-08-04T14:22:40.053Z,27.40
2022-08-04T14:25:15.710Z,27.30
2022-08-04T14:27:46.021Z,27.10
2022-08-04T14:30:29.367Z,26.80
2022-08-04T14:34:01.616Z,26.90
2022-08-04T14:35:58.855Z,26.70
2022-08-04T14:38:44.161Z,26.60
2022-08-04T14:41:12.851Z,26.40
2022-08-04T14:43:46.025Z,26.30
2022-08-04T14:46:16.694Z,26.20
2022-08-04T14:49:03.525Z,26.10
2022-08-04T14:51:36.949Z,25.80
2022-08-04T14:54:08.555Z,25.70
2022-08-04T14:56:47.660Z,25.70
2022-08-04T14:59:15.936Z,25.60
2022-08-04T15:02:01.247Z,25.50
2022-08-04T15:04:32.304Z,25.40
2022-08-04T15:07:04.515Z,25.30
2022-08-04T15:09:33.744Z,25.20
2022-08-04T15:12:02.481Z,25.20
2022-08-04T15:14:37.545Z,25.30
2022-08-04T15:17:12.469Z,25.30
2022-08-04T15:19:57.600Z,25.20
2022-08-04T15:22:25.776Z,25.20
2022-08-04T15:24:55.411Z,25.30
2022-08-04T15:27:26.599Z,25.20
2022-08-04T15:30:01.671Z,25.20
2022-08-04T15:32:35.240Z,25.10
2022-08-04T15:35:06.627Z,25.20
2022-08-04T15:37:44.455Z,25.20
2022-08-04T15:40:15.631Z,25.40
2022-08-04T15:42:49.018Z,25.80
2022-08-04T15:46:02.366Z,25.90
2022-08-04T15:48:32.343Z,26.00
2022-08-04T15:51:15.017Z,26.00
2022-08-04T15:54:24.466Z,26.20
2022-08-04T15:57:02.234Z,26.20
2022-08-04T15:59:57.047Z,26.50
2022-08-04T16:02:40.088Z,26.60
2022-08-04T16:05:36.727Z,26.70
2022-08-04T16:08:12.958Z,26.90
2022-08-04T16:10:42.873Z,26.90
2022-08-04T16:13:14.473Z,27.00
2022-08-04T16:15:45.533Z,27.20
2022-08-04T16:18:26.198Z,27.30
2022-08-04T16:21:02.749Z,27.50
2022-08-04T16:24:02.264Z,27.30
2022-08-04T16:26:46.200Z,27.20
2022-08-04T16:29:40.317Z,27.20
2022-08-04T16:32:22.905Z,27.20
2022-08-04T16:34:56.950Z,27.30
2022-08-04T16:37:33.301Z,27.40
2022-08-04T16:40:33.650Z,27.50
2022-08-04T16:43:07.990Z,27.50
2022-08-04T16:45:47.846Z,27.70
2022-08-04T16:48:17.304Z,27.90
2022-08-04T16:50:51.522Z,28.00
2022-08-04T16:54:02.898Z,27.90
2022-08-04T16:56:11.531Z,27.80
2022-08-04T16:58:50.048Z,27.70
2022-08-04T17:01:32.492Z,27.50
2022-08-04T17:04:06.031Z,27.50
2022-08-04T17:06:39.703Z,27.50
2022-08-04T17:09:12.383Z,27.30
2022-08-04T17:11:41.410Z,27.30
2022-08-04T17:14:09.664Z,27.30
2022-08-04T17:16:39.635Z,27.20
2022-08-04T17:19:24.058Z,27.10
2022-08-04T17:22:03.007Z,27.00
2022-08-04T17:24:38.341Z,26.70
2022-08-04T17:28:19.054Z,26.80
2022-08-04T17:29:56.436Z,26.90
2022-08-04T17:32:25.151Z,26.90
2022-08-04T17:34:57.471Z,26.80
2022-08-04T17:37:38.143Z,26.80
2022-08-04T17:40:13.305Z,26.70
2022-08-04T17:42:45.265Z,26.70
2022-08-04T17:45:51.409Z,26.90
2022-08-04T17:48:09.084Z,26.90
2022-08-04T17:50:43.524Z,26.90
2022-08-04T17:54:01.826Z,26.90
2022-08-04T18:02:22.877Z,26.80
2022-08-04T18:05:07.491Z,26.70
2022-08-04T18:08:38.396Z,26.70
2022-08-04T18:10:51.809Z,26.60
2022-08-04T18:13:27.723Z,26.20
2022-08-04T18:16:03.528Z,25.80
2022-08-04T18:18:32.169Z,25.70
2022-08-04T18:21:02.975Z,25.60
2022-08-04T18:23:32.767Z,25.50
2022-08-04T18:26:02.200Z,25.30
2022-08-04T18:28:33.275Z,25.10
2022-08-04T18:31:02.836Z,24.80
2022-08-04T18:33:40.926Z,24.60
2022-08-04T18:36:33.516Z,24.40
2022-08-04T18:39:13.698Z,24.20
2022-08-04T18:42:00.803Z,24.00
2022-08-04T18:44:32.668Z,23.90
2022-08-04T18:47:23.355Z,23.90
2022-08-04T18:50:59.425Z,23.80
2022-08-04T18:52:42.037Z,23.70
2022-08-04T18:55:55.615Z,23.60
2022-08-04T18:58:07.015Z,23.60
2022-08-04T19:00:37.392Z,23.50
2022-08-04T19:03:16.610Z,23.60
2022-08-04T19:05:51.787Z,23.50
2022-08-04T19:08:33.280Z,23.40
2022-08-04T19:11:29.296Z,23.30
2022-08-04T19:13:58.199Z,23.30
2022-08-04T19:16:29.353Z,23.30
2022-08-04T19:18:58.036Z,23.10
2022-08-04T19:22:00.283Z,22.90
2022-08-04T19:24:31.227Z,23.00
2022-08-04T19:27:07.353Z,22.90
2022-08-04T19:29:41.052Z,22.80
2022-08-04T19:32:15.819Z,22.70
2022-08-04T19:34:47.371Z,22.70
2022-08-04T19:37:58.391Z,22.60
2022-08-04T19:40:06.673Z,22.50
2022-08-04T19:42:35.397Z,22.30
2022-08-04T19:45:03.938Z,22.20
2022-08-04T19:48:12.037Z,22.10
2022-08-04T19:50:23.633Z,22.10
2022-08-04T19:52:52.900Z,22.00
2022-08-04T19:55:36.582Z,21.80
2022-08-04T19:58:07.301Z,21.70
2022-08-04T20:00:37.877Z,21.70
2022-08-04T20:03:11.426Z,21.60
2022-08-04T20:05:54.323Z,21.60
2022-08-04T20:08:24.727Z,21.50
2022-08-04T20:10:54.796Z,21.40
2022-08-04T20:13:25.434Z,21.30
2022-08-04T20:16:05.779Z,21.20
2022-08-04T20:18:59.564Z,21.00
2022-08-04T20:21:54.036Z,20.90
2022-08-04T20:24:37.844Z,20.90
2022-08-04T20:27:08.933Z,20.80
2022-08-04T20:29:43.388Z,20.80
2022-08-04T20:32:15.263Z,20.80
2022-08-04T20:34:44.775Z,20.80
2022-08-04T20:37:15.440Z,20.80
2022-08-04T20:39:43.742Z,20.70
2022-08-04T20:42:12.550Z,20.70
2022-08-04T20:44:46.412Z,20.70
2022-08-04T20:47:15.199Z,20.70
2022-08-04T20:49:44.729Z,20.70
2022-08-04T20:52:20.115Z,20.70
2022-08-04T20:54:49.331Z,20.60
2022-08-04T20:57:48.879Z,20.50
2022-08-04T21:00:13.840Z,20.50
2022-08-04T21:02:41.996Z,20.40
2022-08-04T21:05:13.983Z,20.50
2022-08-04T21:07:48.650Z,20.30
2022-08-04T21:10:17.355Z,20.30
2022-08-04T21:12:52.813Z,20.30
2022-08-04T21:15:24.968Z,20.30
2022-08-04T21:17:58.041Z,20.30
2022-08-04T21:20:33.358Z,20.30
2022-08-04T21:23:03.666Z,20.30
2022-08-04T21:25:42.552Z,20.30
2022-08-04T21:28:11.258Z,20.30
2022-08-04T21:30:54.726Z,20.30
2022-08-04T21:33:49.947Z,20.20
2022-08-04T21:36:16.174Z,20.20
2022-08-04T21:38:51.243Z,20.10
2022-08-04T21:41:24.992Z,20.10
2022-08-04T21:43:55.748Z,20.10
2022-08-04T21:46:24.229Z,20.10
2022-08-04T21:48:52.444Z,20.10
2022-08-04T21:51:58.544Z,20.10
2022-08-04T21:57:00.137Z,20.00
2022-08-04T21:59:31.688Z,19.90
2022-08-04T22:02:01.711Z,19.80
2022-08-04T22:04:30.906Z,19.80
2022-08-04T22:07:03.024Z,19.80
2022-08-04T22:12:22.327Z,19.80
2022-08-04T22:14:57.517Z,19.70
2022-08-04T22:17:35.311Z,19.70
2022-08-04T22:20:05.404Z,19.50
2022-08-04T22:22:37.789Z,19.50
2022-08-04T22:25:13.345Z,19.50
2022-08-04T22:28:01.686Z,19.50
2022-08-04T22:30:36.367Z,19.40
2022-08-04T22:33:07.510Z,19.50
2022-08-04T22:35:48.686Z,19.50
2022-08-04T22:38:21.311Z,19.50
2022-08-04T22:40:58.411Z,19.40
2022-08-04T22:43:32.881Z,19.30
2022-08-04T22:46:05.442Z,19.40
2022-08-04T22:48:36.425Z,19.50
2022-08-04T22:51:06.952Z,19.50
2022-08-04T22:53:36.842Z,19.50
2022-08-04T22:56:07.010Z,19.50
2022-08-04T22:58:45.075Z,19.50
2022-08-04T23:01:14.967Z,19.50
2022-08-04T23:03:51.014Z,19.50
2022-08-04T23:06:28.622Z,19.50
2022-08-04T23:08:59.283Z,19.60
2022-08-04T23:11:34.499Z,19.60
2022-08-04T23:14:05.322Z,19.60
2022-08-04T23:16:40.896Z,19.60
2022-08-04T23:19:15.239Z,19.60
2022-08-04T23:21:47.647Z,19.50
2022-08-04T23:24:17.466Z,19.50
2022-08-04T23:26:47.713Z,19.60
2022-08-04T23:29:15.821Z,19.50
2022-08-04T23:31:59.959Z,19.50
2022-08-04T23:34:29.373Z,19.50
2022-08-04T23:37:16.481Z,19.40
2022-08-04T23:40:15.762Z,19.40
2022-08-04T23:42:46.318Z,19.30
2022-08-04T23:45:15.226Z,19.30
2022-08-04T23:48:15.267Z,19.30
2022-08-04T23:50:47.240Z,19.30
2022-08-04T23:53:18.687Z,19.20
2022-08-04T23:56:19.581Z,19.30
2022-08-04T23:58:53.948Z,19.20
